sensor_id;sensor_type;location;lat;lon;timestamp;P1;durP1;ratioP1;P2;durP2;ratioP2
9771;SDS011;4925;52.588;13.370;2023-05-07T00:00:24;8.90;;;8.00;;
9771;SDS011;4925;52.588;13.370;2023-05-07T00:02:49;8.90;;;7.93;;
9771;SDS011;4925;52.588;13.370;2023-05-07T00:05:15;9.93;;;8.90;;
9771;SDS011;4925;52.588;13.370;2023-05-07T00:07:41;9.47;;;8.47;;
9771;SDS011;4925;52.588;13.370;2023-05-07T00:10:07;13.10;;;8.23;;
9771;SDS011;4925;52.588;13.370;2023-05-07T00:12:33;10.47;;;8.53;;
9771;SDS011;4925;52.588;13.370;2023-05-07T00:14:59;9.80;;;8.57;;
9771;SDS011;4925;52.588;13.370;2023-05-07T00:17:26;11.10;;;8.50;;
9771;SDS011;4925;52.588;13.370;2023-05-07T00:19:52;9.50;;;8.33;;
9771;SDS011;4925;52.588;13.370;2023-05-07T00:22:17;12.20;;;9.03;;
9771;SDS011;4925;52.588;13.370;2023-05-07T00:24:43;10.47;;;8.27;;
9771;SDS011;4925;52.588;13.370;2023-05-07T00:27:09;10.53;;;8.53;;
9771;SDS011;4925;52.588;13.370;2023-05-07T00:29:34;11.40;;;8.77;;
9771;SDS011;4925;52.588;13.370;2023-05-07T00:32:01;10.17;;;9.03;;
9771;SDS011;4925;52.588;13.370;2023-05-07T00:34:27;12.07;;;8.40;;
9771;SDS011;4925;52.588;13.370;2023-05-07T00:36:52;10.13;;;7.70;;
9771;SDS011;4925;52.588;13.370;2023-05-07T00:39:18;14.17;;;8.23;;
9771;SDS011;4925;52.588;13.370;2023-05-07T00:41:44;9.07;;;7.47;;
9771;SDS011;4925;52.588;13.370;2023-05-07T00:44:09;8.77;;;7.87;;
9771;SDS011;4925;52.588;13.370;2023-05-07T00:46:35;8.50;;;7.60;;
9771;SDS011;4925;52.588;13.370;2023-05-07T00:49:01;8.93;;;7.80;;
9771;SDS011;4925;52.588;13.370;2023-05-07T00:51:27;8.33;;;7.53;;
9771;SDS011;4925;52.588;13.370;2023-05-07T00:53:53;9.13;;;7.53;;
9771;SDS011;4925;52.588;13.370;2023-05-07T00:56:22;11.43;;;7.80;;
9771;SDS011;4925;52.588;13.370;2023-05-07T00:58:49;8.07;;;7.20;;
9771;SDS011;4925;52.588;13.370;2023-05-07T01:01:14;10.13;;;7.30;;
9771;SDS011;4925;52.588;13.370;2023-05-07T01:03:41;11.37;;;7.40;;
9771;SDS011;4925;52.588;13.370;2023-05-07T01:06:07;11.47;;;7.00;;
9771;SDS011;4925;52.588;13.370;2023-05-07T01:08:34;11.47;;;7.37;;
9771;SDS011;4925;52.588;13.370;2023-05-07T01:11:01;9.27;;;7.53;;
9771;SDS011;4925;52.588;13.370;2023-05-07T01:13:27;8.27;;;7.00;;
9771;SDS011;4925;52.588;13.370;2023-05-07T01:15:53;8.00;;;7.20;;
9771;SDS011;4925;52.588;13.370;2023-05-07T01:18:19;11.83;;;7.67;;
9771;SDS011;4925;52.588;13.370;2023-05-07T01:20:45;9.53;;;7.50;;
9771;SDS011;4925;52.588;13.370;2023-05-07T01:23:11;8.00;;;7.23;;
9771;SDS011;4925;52.588;13.370;2023-05-07T01:25:37;7.93;;;7.13;;
9771;SDS011;4925;52.588;13.370;2023-05-07T01:28:02;8.63;;;7.70;;
9771;SDS011;4925;52.588;13.370;2023-05-07T01:30:28;7.93;;;7.03;;
9771;SDS011;4925;52.588;13.370;2023-05-07T01:33:13;12.63;;;8.10;;
9771;SDS011;4925;52.588;13.370;2023-05-07T01:35:45;9.90;;;7.27;;
9771;SDS011;4925;52.588;13.370;2023-05-07T01:38:12;8.07;;;7.20;;
9771;SDS011;4925;52.588;13.370;2023-05-07T01:40:38;8.83;;;7.50;;
9771;SDS011;4925;52.588;13.370;2023-05-07T01:43:04;11.10;;;7.40;;
9771;SDS011;4925;52.588;13.370;2023-05-07T01:45:31;8.10;;;7.30;;
9771;SDS011;4925;52.588;13.370;2023-05-07T01:48:01;8.17;;;7.23;;
9771;SDS011;4925;52.588;13.370;2023-05-07T01:50:27;8.30;;;7.27;;
9771;SDS011;4925;52.588;13.370;2023-05-07T01:52:54;8.27;;;7.40;;
9771;SDS011;4925;52.588;13.370;2023-05-07T01:55:20;8.30;;;7.27;;
9771;SDS011;4925;52.588;13.370;2023-05-07T01:57:46;8.00;;;7.00;;
9771;SDS011;4925;52.588;13.370;2023-05-07T02:00:12;9.77;;;6.93;;
9771;SDS011;4925;52.588;13.370;2023-05-07T02:02:38;10.73;;;7.27;;
9771;SDS011;4925;52.588;13.370;2023-05-07T02:05:04;9.53;;;6.83;;
9771;SDS011;4925;52.588;13.370;2023-05-07T02:07:30;8.43;;;6.73;;
9771;SDS011;4925;52.588;13.370;2023-05-07T02:09:55;7.70;;;7.00;;
9771;SDS011;4925;52.588;13.370;2023-05-07T02:12:22;7.87;;;7.13;;
9771;SDS011;4925;52.588;13.370;2023-05-07T02:14:48;13.00;;;7.10;;
9771;SDS011;4925;52.588;13.370;2023-05-07T02:17:14;8.00;;;7.10;;
9771;SDS011;4925;52.588;13.370;2023-05-07T02:19:39;7.57;;;6.77;;
9771;SDS011;4925;52.588;13.370;2023-05-07T02:22:05;8.40;;;6.87;;
9771;SDS011;4925;52.588;13.370;2023-05-07T02:24:32;9.30;;;7.27;;
9771;SDS011;4925;52.588;13.370;2023-05-07T02:26:57;8.17;;;6.83;;
9771;SDS011;4925;52.588;13.370;2023-05-07T02:29:23;8.00;;;6.83;;
9771;SDS011;4925;52.588;13.370;2023-05-07T02:31:48;9.77;;;6.90;;
9771;SDS011;4925;52.588;13.370;2023-05-07T02:34:16;8.63;;;7.73;;
9771;SDS011;4925;52.588;13.370;2023-05-07T02:36:42;9.03;;;6.90;;
9771;SDS011;4925;52.588;13.370;2023-05-07T02:39:08;7.73;;;6.67;;
9771;SDS011;4925;52.588;13.370;2023-05-07T02:41:33;9.50;;;6.87;;
9771;SDS011;4925;52.588;13.370;2023-05-07T02:43:59;8.73;;;7.07;;
9771;SDS011;4925;52.588;13.370;2023-05-07T02:46:25;7.70;;;6.97;;
9771;SDS011;4925;52.588;13.370;2023-05-07T02:48:51;7.27;;;6.57;;
9771;SDS011;4925;52.588;13.370;2023-05-07T02:51:20;7.47;;;6.70;;
9771;SDS011;4925;52.588;13.370;2023-05-07T02:53:47;8.63;;;7.40;;
9771;SDS011;4925;52.588;13.370;2023-05-07T02:56:12;9.43;;;6.97;;
9771;SDS011;4925;52.588;13.370;2023-05-07T02:58:38;6.13;;;5.53;;
9771;SDS011;4925;52.588;13.370;2023-05-07T03:01:07;7.23;;;6.47;;
9771;SDS011;4925;52.588;13.370;2023-05-07T03:03:33;6.37;;;5.73;;
9771;SDS011;4925;52.588;13.370;2023-05-07T03:05:59;6.87;;;6.27;;
9771;SDS011;4925;52.588;13.370;2023-05-07T03:08:26;6.87;;;6.00;;
9771;SDS011;4925;52.588;13.370;2023-05-07T03:10:51;7.57;;;5.83;;
9771;SDS011;4925;52.588;13.370;2023-05-07T03:13:17;7.77;;;5.67;;
9771;SDS011;4925;52.588;13.370;2023-05-07T03:15:43;7.73;;;6.10;;
9771;SDS011;4925;52.588;13.370;2023-05-07T03:18:08;8.37;;;6.33;;
9771;SDS011;4925;52.588;13.370;2023-05-07T03:20:34;6.83;;;6.17;;
9771;SDS011;4925;52.588;13.370;2023-05-07T03:23:01;7.93;;;6.50;;
9771;SDS011;4925;52.588;13.370;2023-05-07T03:25:27;6.93;;;6.10;;
9771;SDS011;4925;52.588;13.370;2023-05-07T03:27:54;9.00;;;5.97;;
9771;SDS011;4925;52.588;13.370;2023-05-07T03:30:20;8.10;;;6.17;;
9771;SDS011;4925;52.588;13.370;2023-05-07T03:32:46;6.97;;;6.13;;
9771;SDS011;4925;52.588;13.370;2023-05-07T03:35:12;7.70;;;6.33;;
9771;SDS011;4925;52.588;13.370;2023-05-07T03:37:38;9.47;;;6.63;;
9771;SDS011;4925;52.588;13.370;2023-05-07T03:40:04;7.47;;;6.23;;
9771;SDS011;4925;52.588;13.370;2023-05-07T03:42:31;6.70;;;6.00;;
9771;SDS011;4925;52.588;13.370;2023-05-07T03:44:56;6.20;;;5.60;;
9771;SDS011;4925;52.588;13.370;2023-05-07T03:47:22;8.33;;;6.03;;
9771;SDS011;4925;52.588;13.370;2023-05-07T03:49:48;7.00;;;5.80;;
9771;SDS011;4925;52.588;13.370;2023-05-07T03:52:14;7.83;;;5.67;;
9771;SDS011;4925;52.588;13.370;2023-05-07T03:54:40;8.80;;;6.27;;
9771;SDS011;4925;52.588;13.370;2023-05-07T03:57:05;6.80;;;6.13;;
9771;SDS011;4925;52.588;13.370;2023-05-07T03:59:31;9.03;;;5.70;;
9771;SDS011;4925;52.588;13.370;2023-05-07T04:01:57;8.30;;;6.00;;
9771;SDS011;4925;52.588;13.370;2023-05-07T04:04:23;6.77;;;5.27;;
9771;SDS011;4925;52.588;13.370;2023-05-07T04:06:49;6.53;;;5.73;;
9771;SDS011;4925;52.588;13.370;2023-05-07T04:09:14;6.10;;;5.37;;
9771;SDS011;4925;52.588;13.370;2023-05-07T04:11:40;7.97;;;5.33;;
9771;SDS011;4925;52.588;13.370;2023-05-07T04:14:06;6.43;;;5.47;;
9771;SDS011;4925;52.588;13.370;2023-05-07T04:16:31;8.00;;;5.30;;
9771;SDS011;4925;52.588;13.370;2023-05-07T04:18:57;8.10;;;5.77;;
9771;SDS011;4925;52.588;13.370;2023-05-07T04:21:23;8.77;;;5.37;;
9771;SDS011;4925;52.588;13.370;2023-05-07T04:23:48;7.93;;;5.63;;
9771;SDS011;4925;52.588;13.370;2023-05-07T04:26:15;6.77;;;5.07;;
9771;SDS011;4925;52.588;13.370;2023-05-07T04:28:41;6.87;;;6.00;;
9771;SDS011;4925;52.588;13.370;2023-05-07T04:31:07;6.93;;;5.80;;
9771;SDS011;4925;52.588;13.370;2023-05-07T04:33:33;5.97;;;5.40;;
9771;SDS011;4925;52.588;13.370;2023-05-07T04:36:02;7.53;;;5.47;;
9771;SDS011;4925;52.588;13.370;2023-05-07T04:38:28;9.60;;;5.20;;
9771;SDS011;4925;52.588;13.370;2023-05-07T04:40:55;10.37;;;5.47;;
9771;SDS011;4925;52.588;13.370;2023-05-07T04:43:22;8.43;;;5.80;;
9771;SDS011;4925;52.588;13.370;2023-05-07T04:45:47;5.90;;;5.40;;
9771;SDS011;4925;52.588;13.370;2023-05-07T04:48:15;5.47;;;4.87;;
9771;SDS011;4925;52.588;13.370;2023-05-07T04:50:41;7.07;;;5.53;;
9771;SDS011;4925;52.588;13.370;2023-05-07T04:53:06;5.97;;;4.97;;
9771;SDS011;4925;52.588;13.370;2023-05-07T04:55:32;6.40;;;5.60;;
9771;SDS011;4925;52.588;13.370;2023-05-07T04:57:58;5.30;;;4.90;;
9771;SDS011;4925;52.588;13.370;2023-05-07T05:00:25;6.70;;;5.33;;
9771;SDS011;4925;52.588;13.370;2023-05-07T05:02:51;5.30;;;4.80;;
9771;SDS011;4925;52.588;13.370;2023-05-07T05:05:16;6.30;;;5.70;;
9771;SDS011;4925;52.588;13.370;2023-05-07T05:07:42;5.47;;;4.93;;
9771;SDS011;4925;52.588;13.370;2023-05-07T05:10:08;6.23;;;5.60;;
9771;SDS011;4925;52.588;13.370;2023-05-07T05:12:34;7.37;;;5.10;;
9771;SDS011;4925;52.588;13.370;2023-05-07T05:14:59;8.43;;;5.60;;
9771;SDS011;4925;52.588;13.370;2023-05-07T05:17:25;8.03;;;5.40;;
9771;SDS011;4925;52.588;13.370;2023-05-07T05:19:51;6.30;;;5.50;;
9771;SDS011;4925;52.588;13.370;2023-05-07T05:22:16;5.10;;;4.60;;
9771;SDS011;4925;52.588;13.370;2023-05-07T05:24:42;6.80;;;5.77;;
9771;SDS011;4925;52.588;13.370;2023-05-07T05:27:07;5.63;;;4.80;;
9771;SDS011;4925;52.588;13.370;2023-05-07T05:29:33;5.17;;;4.77;;
9771;SDS011;4925;52.588;13.370;2023-05-07T05:31:59;5.97;;;4.77;;
9771;SDS011;4925;52.588;13.370;2023-05-07T05:34:25;5.33;;;4.83;;
9771;SDS011;4925;52.588;13.370;2023-05-07T05:36:50;6.03;;;4.90;;
9771;SDS011;4925;52.588;13.370;2023-05-07T05:39:16;5.13;;;4.47;;
9771;SDS011;4925;52.588;13.370;2023-05-07T05:41:42;8.13;;;5.13;;
9771;SDS011;4925;52.588;13.370;2023-05-07T05:44:08;8.33;;;4.97;;
9771;SDS011;4925;52.588;13.370;2023-05-07T05:46:33;5.20;;;4.70;;
9771;SDS011;4925;52.588;13.370;2023-05-07T05:49:00;10.73;;;4.77;;
9771;SDS011;4925;52.588;13.370;2023-05-07T05:51:26;5.00;;;4.50;;
9771;SDS011;4925;52.588;13.370;2023-05-07T05:53:51;5.80;;;4.97;;
9771;SDS011;4925;52.588;13.370;2023-05-07T05:56:17;7.43;;;5.00;;
9771;SDS011;4925;52.588;13.370;2023-05-07T05:58:42;5.13;;;4.67;;
9771;SDS011;4925;52.588;13.370;2023-05-07T06:01:08;5.73;;;5.23;;
9771;SDS011;4925;52.588;13.370;2023-05-07T06:03:34;5.27;;;4.77;;
9771;SDS011;4925;52.588;13.370;2023-05-07T06:06:00;11.10;;;5.20;;
9771;SDS011;4925;52.588;13.370;2023-05-07T06:08:28;8.00;;;5.17;;
9771;SDS011;4925;52.588;13.370;2023-05-07T06:10:54;5.57;;;4.93;;
9771;SDS011;4925;52.588;13.370;2023-05-07T06:13:20;6.83;;;5.40;;
9771;SDS011;4925;52.588;13.370;2023-05-07T06:15:46;5.73;;;5.07;;
9771;SDS011;4925;52.588;13.370;2023-05-07T06:18:11;7.00;;;5.23;;
9771;SDS011;4925;52.588;13.370;2023-05-07T06:20:37;5.37;;;4.87;;
9771;SDS011;4925;52.588;13.370;2023-05-07T06:23:02;5.30;;;4.80;;
9771;SDS011;4925;52.588;13.370;2023-05-07T06:25:28;5.10;;;4.57;;
9771;SDS011;4925;52.588;13.370;2023-05-07T06:27:54;6.50;;;4.90;;
9771;SDS011;4925;52.588;13.370;2023-05-07T06:30:19;7.10;;;5.03;;
9771;SDS011;4925;52.588;13.370;2023-05-07T06:32:45;7.00;;;5.20;;
9771;SDS011;4925;52.588;13.370;2023-05-07T06:35:11;6.20;;;4.50;;
9771;SDS011;4925;52.588;13.370;2023-05-07T06:37:38;6.43;;;4.80;;
9771;SDS011;4925;52.588;13.370;2023-05-07T06:40:05;6.27;;;5.20;;
9771;SDS011;4925;52.588;13.370;2023-05-07T06:42:32;5.33;;;4.83;;
9771;SDS011;4925;52.588;13.370;2023-05-07T06:44:57;7.67;;;5.17;;
9771;SDS011;4925;52.588;13.370;2023-05-07T06:47:23;5.53;;;4.83;;
9771;SDS011;4925;52.588;13.370;2023-05-07T06:49:48;6.33;;;4.80;;
9771;SDS011;4925;52.588;13.370;2023-05-07T06:52:14;5.50;;;4.63;;
9771;SDS011;4925;52.588;13.370;2023-05-07T06:54:40;4.93;;;4.53;;
9771;SDS011;4925;52.588;13.370;2023-05-07T06:57:06;9.33;;;4.97;;
9771;SDS011;4925;52.588;13.370;2023-05-07T06:59:32;5.47;;;4.97;;
9771;SDS011;4925;52.588;13.370;2023-05-07T07:01:57;7.83;;;4.47;;
9771;SDS011;4925;52.588;13.370;2023-05-07T07:04:23;7.63;;;4.60;;
9771;SDS011;4925;52.588;13.370;2023-05-07T07:06:51;7.00;;;4.37;;
9771;SDS011;4925;52.588;13.370;2023-05-07T07:09:17;5.43;;;4.33;;
9771;SDS011;4925;52.588;13.370;2023-05-07T07:11:43;4.47;;;4.07;;
9771;SDS011;4925;52.588;13.370;2023-05-07T07:14:09;5.67;;;4.60;;
9771;SDS011;4925;52.588;13.370;2023-05-07T07:16:34;4.97;;;3.83;;
9771;SDS011;4925;52.588;13.370;2023-05-07T07:19:00;4.50;;;3.60;;
9771;SDS011;4925;52.588;13.370;2023-05-07T07:21:26;5.07;;;3.70;;
9771;SDS011;4925;52.588;13.370;2023-05-07T07:23:51;5.50;;;3.97;;
9771;SDS011;4925;52.588;13.370;2023-05-07T07:26:17;5.57;;;3.87;;
9771;SDS011;4925;52.588;13.370;2023-05-07T07:28:43;3.53;;;3.23;;
9771;SDS011;4925;52.588;13.370;2023-05-07T07:31:12;4.63;;;3.40;;
9771;SDS011;4925;52.588;13.370;2023-05-07T07:33:38;5.17;;;3.80;;
9771;SDS011;4925;52.588;13.370;2023-05-07T07:36:05;5.10;;;3.93;;
9771;SDS011;4925;52.588;13.370;2023-05-07T07:38:31;4.00;;;3.60;;
9771;SDS011;4925;52.588;13.370;2023-05-07T07:40:57;3.30;;;3.00;;
9771;SDS011;4925;52.588;13.370;2023-05-07T07:43:22;3.53;;;3.23;;
9771;SDS011;4925;52.588;13.370;2023-05-07T07:45:48;5.70;;;4.00;;
9771;SDS011;4925;52.588;13.370;2023-05-07T07:48:14;3.63;;;3.33;;
9771;SDS011;4925;52.588;13.370;2023-05-07T07:50:39;3.33;;;3.00;;
9771;SDS011;4925;52.588;13.370;2023-05-07T07:53:05;3.90;;;3.47;;
9771;SDS011;4925;52.588;13.370;2023-05-07T07:55:31;4.70;;;3.47;;
9771;SDS011;4925;52.588;13.370;2023-05-07T07:57:57;4.00;;;3.70;;
9771;SDS011;4925;52.588;13.370;2023-05-07T08:00:22;5.03;;;3.30;;
9771;SDS011;4925;52.588;13.370;2023-05-07T08:02:48;3.90;;;3.50;;
9771;SDS011;4925;52.588;13.370;2023-05-07T08:05:14;3.37;;;2.97;;
9771;SDS011;4925;52.588;13.370;2023-05-07T08:07:40;3.50;;;3.20;;
9771;SDS011;4925;52.588;13.370;2023-05-07T08:10:06;2.70;;;2.50;;
9771;SDS011;4925;52.588;13.370;2023-05-07T08:12:32;3.03;;;2.57;;
9771;SDS011;4925;52.588;13.370;2023-05-07T08:14:57;2.90;;;2.70;;
9771;SDS011;4925;52.588;13.370;2023-05-07T08:17:23;3.47;;;2.37;;
9771;SDS011;4925;52.588;13.370;2023-05-07T08:19:49;3.47;;;2.53;;
9771;SDS011;4925;52.588;13.370;2023-05-07T08:22:14;3.37;;;2.70;;
9771;SDS011;4925;52.588;13.370;2023-05-07T08:24:40;2.60;;;2.40;;
9771;SDS011;4925;52.588;13.370;2023-05-07T08:27:06;3.90;;;2.30;;
9771;SDS011;4925;52.588;13.370;2023-05-07T08:29:31;3.53;;;2.70;;
9771;SDS011;4925;52.588;13.370;2023-05-07T08:31:57;3.13;;;2.43;;
9771;SDS011;4925;52.588;13.370;2023-05-07T08:34:23;2.93;;;2.40;;
9771;SDS011;4925;52.588;13.370;2023-05-07T08:36:48;6.93;;;3.93;;
9771;SDS011;4925;52.588;13.370;2023-05-07T08:39:17;4.13;;;3.30;;
9771;SDS011;4925;52.588;13.370;2023-05-07T08:41:44;4.57;;;3.00;;
9771;SDS011;4925;52.588;13.370;2023-05-07T08:44:13;3.87;;;2.70;;
9771;SDS011;4925;52.588;13.370;2023-05-07T08:46:39;3.43;;;2.37;;
9771;SDS011;4925;52.588;13.370;2023-05-07T08:49:06;2.80;;;2.27;;
9771;SDS011;4925;52.588;13.370;2023-05-07T08:51:32;5.50;;;2.83;;
9771;SDS011;4925;52.588;13.370;2023-05-07T08:53:59;3.47;;;2.73;;
9771;SDS011;4925;52.588;13.370;2023-05-07T08:56:26;2.63;;;2.17;;
9771;SDS011;4925;52.588;13.370;2023-05-07T08:58:52;2.93;;;2.50;;
9771;SDS011;4925;52.588;13.370;2023-05-07T09:01:21;2.83;;;2.23;;
9771;SDS011;4925;52.588;13.370;2023-05-07T09:03:49;3.53;;;2.27;;
9771;SDS011;4925;52.588;13.370;2023-05-07T09:06:15;2.90;;;2.30;;
9771;SDS011;4925;52.588;13.370;2023-05-07T09:08:44;3.07;;;2.37;;
9771;SDS011;4925;52.588;13.370;2023-05-07T09:11:19;2.50;;;2.30;;
9771;SDS011;4925;52.588;13.370;2023-05-07T09:13:49;2.83;;;2.63;;
9771;SDS011;4925;52.588;13.370;2023-05-07T09:16:20;3.83;;;2.50;;
9771;SDS011;4925;52.588;13.370;2023-05-07T09:18:46;2.83;;;2.60;;
9771;SDS011;4925;52.588;13.370;2023-05-07T09:21:16;3.70;;;1.93;;
9771;SDS011;4925;52.588;13.370;2023-05-07T09:23:43;5.37;;;2.40;;
9771;SDS011;4925;52.588;13.370;2023-05-07T09:26:08;2.73;;;2.20;;
9771;SDS011;4925;52.588;13.370;2023-05-07T09:28:40;3.33;;;2.27;;
9771;SDS011;4925;52.588;13.370;2023-05-07T09:31:09;2.83;;;2.50;;
9771;SDS011;4925;52.588;13.370;2023-05-07T09:33:36;3.03;;;2.00;;
9771;SDS011;4925;52.588;13.370;2023-05-07T09:36:03;2.70;;;2.10;;
9771;SDS011;4925;52.588;13.370;2023-05-07T09:38:30;11.47;;;2.73;;
9771;SDS011;4925;52.588;13.370;2023-05-07T09:43:36;2.83;;;2.10;;
9771;SDS011;4925;52.588;13.370;2023-05-07T09:46:12;2.07;;;1.97;;
9771;SDS011;4925;52.588;13.370;2023-05-07T09:48:41;3.27;;;2.50;;
9771;SDS011;4925;52.588;13.370;2023-05-07T09:53:36;2.50;;;2.30;;
9771;SDS011;4925;52.588;13.370;2023-05-07T09:56:02;3.53;;;2.10;;
9771;SDS011;4925;52.588;13.370;2023-05-07T09:58:29;3.17;;;2.30;;
9771;SDS011;4925;52.588;13.370;2023-05-07T10:00:56;2.00;;;1.90;;
9771;SDS011;4925;52.588;13.370;2023-05-07T10:03:22;2.23;;;1.90;;
9771;SDS011;4925;52.588;13.370;2023-05-07T10:05:52;3.13;;;2.10;;
9771;SDS011;4925;52.588;13.370;2023-05-07T10:08:19;1.67;;;1.63;;
9771;SDS011;4925;52.588;13.370;2023-05-07T10:10:45;1.67;;;1.57;;
9771;SDS011;4925;52.588;13.370;2023-05-07T10:13:12;2.40;;;2.20;;
9771;SDS011;4925;52.588;13.370;2023-05-07T10:15:38;4.17;;;1.80;;
9771;SDS011;4925;52.588;13.370;2023-05-07T10:18:04;2.00;;;1.80;;
9771;SDS011;4925;52.588;13.370;2023-05-07T10:20:32;5.40;;;3.47;;
9771;SDS011;4925;52.588;13.370;2023-05-07T10:22:59;11.63;;;8.63;;
9771;SDS011;4925;52.588;13.370;2023-05-07T10:25:30;1.90;;;1.80;;
9771;SDS011;4925;52.588;13.370;2023-05-07T10:28:00;3.07;;;1.93;;
9771;SDS011;4925;52.588;13.370;2023-05-07T10:33:11;2.00;;;1.60;;
9771;SDS011;4925;52.588;13.370;2023-05-07T10:35:41;2.67;;;1.73;;
9771;SDS011;4925;52.588;13.370;2023-05-07T10:38:09;1.97;;;1.80;;
9771;SDS011;4925;52.588;13.370;2023-05-07T10:40:35;1.87;;;1.77;;
9771;SDS011;4925;52.588;13.370;2023-05-07T10:43:02;2.40;;;1.40;;
9771;SDS011;4925;52.588;13.370;2023-05-07T10:45:32;1.90;;;1.70;;
9771;SDS011;4925;52.588;13.370;2023-05-07T10:48:11;2.43;;;1.60;;
9771;SDS011;4925;52.588;13.370;2023-05-07T10:50:38;2.20;;;2.10;;
9771;SDS011;4925;52.588;13.370;2023-05-07T10:56:28;2.15;;;1.80;;
9771;SDS011;4925;52.588;13.370;2023-05-07T10:58:44;2.25;;;1.67;;
9771;SDS011;4925;52.588;13.370;2023-05-07T11:01:10;1.90;;;1.40;;
9771;SDS011;4925;52.588;13.370;2023-05-07T11:03:37;2.73;;;1.90;;
9771;SDS011;4925;52.588;13.370;2023-05-07T11:06:40;1.55;;;1.35;;
9771;SDS011;4925;52.588;13.370;2023-05-07T11:09:05;2.08;;;1.50;;
9771;SDS011;4925;52.588;13.370;2023-05-07T11:11:44;1.23;;;1.23;;
9771;SDS011;4925;52.588;13.370;2023-05-07T11:17:07;2.83;;;1.65;;
9771;SDS011;4925;52.588;13.370;2023-05-07T11:19:53;2.55;;;1.63;;
9771;SDS011;4925;52.588;13.370;2023-05-07T11:25:01;2.33;;;1.90;;
9771;SDS011;4925;52.588;13.370;2023-05-07T11:27:28;2.10;;;1.60;;
9771;SDS011;4925;52.588;13.370;2023-05-07T11:29:54;2.40;;;1.38;;
9771;SDS011;4925;52.588;13.370;2023-05-07T11:32:23;1.67;;;1.58;;
9771;SDS011;4925;52.588;13.370;2023-05-07T11:34:53;1.65;;;1.55;;
9771;SDS011;4925;52.588;13.370;2023-05-07T11:37:20;2.08;;;1.70;;
9771;SDS011;4925;52.588;13.370;2023-05-07T11:39:46;5.35;;;1.80;;
9771;SDS011;4925;52.588;13.370;2023-05-07T11:42:28;2.28;;;1.73;;
9771;SDS011;4925;52.588;13.370;2023-05-07T11:44:58;2.40;;;1.63;;
9771;SDS011;4925;52.588;13.370;2023-05-07T11:47:24;2.40;;;1.70;;
9771;SDS011;4925;52.588;13.370;2023-05-07T11:49:53;1.50;;;1.40;;
9771;SDS011;4925;52.588;13.370;2023-05-07T11:52:21;1.65;;;1.55;;
9771;SDS011;4925;52.588;13.370;2023-05-07T11:54:51;1.77;;;1.67;;
9771;SDS011;4925;52.588;13.370;2023-05-07T11:57:21;1.60;;;1.50;;
9771;SDS011;4925;52.588;13.370;2023-05-07T11:59:47;1.67;;;1.58;;
9771;SDS011;4925;52.588;13.370;2023-05-07T12:02:13;2.30;;;1.73;;
9771;SDS011;4925;52.588;13.370;2023-05-07T12:04:40;1.35;;;1.25;;
9771;SDS011;4925;52.588;13.370;2023-05-07T12:07:13;3.10;;;2.20;;
9771;SDS011;4925;52.588;13.370;2023-05-07T12:09:40;1.65;;;1.55;;
9771;SDS011;4925;52.588;13.370;2023-05-07T12:12:09;3.40;;;1.60;;
9771;SDS011;4925;52.588;13.370;2023-05-07T12:14:42;1.70;;;1.50;;
9771;SDS011;4925;52.588;13.370;2023-05-07T12:17:09;2.10;;;1.85;;
9771;SDS011;4925;52.588;13.370;2023-05-07T12:19:39;2.53;;;2.10;;
9771;SDS011;4925;52.588;13.370;2023-05-07T12:22:09;1.48;;;1.38;;
9771;SDS011;4925;52.588;13.370;2023-05-07T12:24:49;8.65;;;1.85;;
9771;SDS011;4925;52.588;13.370;2023-05-07T12:27:21;3.88;;;1.48;;
9771;SDS011;4925;52.588;13.370;2023-05-07T12:29:48;2.30;;;2.13;;
9771;SDS011;4925;52.588;13.370;2023-05-07T12:32:15;3.45;;;1.70;;
9771;SDS011;4925;52.588;13.370;2023-05-07T12:34:42;2.38;;;1.70;;
9771;SDS011;4925;52.588;13.370;2023-05-07T12:37:08;1.95;;;1.23;;
9771;SDS011;4925;52.588;13.370;2023-05-07T12:39:35;2.15;;;1.40;;
9771;SDS011;4925;52.588;13.370;2023-05-07T12:42:00;1.50;;;1.40;;
9771;SDS011;4925;52.588;13.370;2023-05-07T12:44:32;1.40;;;1.30;;
9771;SDS011;4925;52.588;13.370;2023-05-07T12:47:01;1.70;;;1.52;;
9771;SDS011;4925;52.588;13.370;2023-05-07T12:49:27;1.77;;;1.30;;
9771;SDS011;4925;52.588;13.370;2023-05-07T12:51:53;3.40;;;1.60;;
9771;SDS011;4925;52.588;13.370;2023-05-07T12:54:32;1.30;;;1.20;;
9771;SDS011;4925;52.588;13.370;2023-05-07T12:57:06;2.78;;;1.40;;
9771;SDS011;4925;52.588;13.370;2023-05-07T12:59:36;1.42;;;1.33;;
9771;SDS011;4925;52.588;13.370;2023-05-07T13:02:04;3.03;;;1.73;;
9771;SDS011;4925;52.588;13.370;2023-05-07T13:04:30;1.45;;;1.40;;
9771;SDS011;4925;52.588;13.370;2023-05-07T13:06:56;1.58;;;1.48;;
9771;SDS011;4925;52.588;13.370;2023-05-07T13:09:21;1.95;;;1.55;;
9771;SDS011;4925;52.588;13.370;2023-05-07T13:11:47;1.90;;;1.63;;
9771;SDS011;4925;52.588;13.370;2023-05-07T13:14:13;3.50;;;1.60;;
9771;SDS011;4925;52.588;13.370;2023-05-07T13:16:38;1.80;;;1.55;;
9771;SDS011;4925;52.588;13.370;2023-05-07T13:19:04;1.55;;;1.40;;
9771;SDS011;4925;52.588;13.370;2023-05-07T13:21:30;1.90;;;1.50;;
9771;SDS011;4925;52.588;13.370;2023-05-07T13:23:59;1.98;;;1.67;;
9771;SDS011;4925;52.588;13.370;2023-05-07T13:26:25;1.80;;;1.55;;
9771;SDS011;4925;52.588;13.370;2023-05-07T13:28:51;1.60;;;1.50;;
9771;SDS011;4925;52.588;13.370;2023-05-07T13:31:17;2.53;;;1.40;;
9771;SDS011;4925;52.588;13.370;2023-05-07T13:33:43;3.13;;;1.55;;
9771;SDS011;4925;52.588;13.370;2023-05-07T13:36:09;2.35;;;1.80;;
9771;SDS011;4925;52.588;13.370;2023-05-07T13:38:34;1.77;;;1.67;;
9771;SDS011;4925;52.588;13.370;2023-05-07T13:41:00;1.67;;;1.58;;
9771;SDS011;4925;52.588;13.370;2023-05-07T13:43:26;3.00;;;1.83;;
9771;SDS011;4925;52.588;13.370;2023-05-07T13:45:52;2.03;;;1.40;;
9771;SDS011;4925;52.588;13.370;2023-05-07T13:48:17;2.00;;;1.85;;
9771;SDS011;4925;52.588;13.370;2023-05-07T13:50:43;1.77;;;1.60;;
9771;SDS011;4925;52.588;13.370;2023-05-07T13:53:09;2.28;;;1.90;;
9771;SDS011;4925;52.588;13.370;2023-05-07T13:55:34;1.88;;;1.73;;
9771;SDS011;4925;52.588;13.370;2023-05-07T13:58:00;3.78;;;1.88;;
9771;SDS011;4925;52.588;13.370;2023-05-07T14:00:27;2.35;;;1.70;;
9771;SDS011;4925;52.588;13.370;2023-05-07T14:02:54;1.95;;;1.60;;
9771;SDS011;4925;52.588;13.370;2023-05-07T14:05:20;13.50;;;10.20;;
9771;SDS011;4925;52.588;13.370;2023-05-07T14:07:48;4.65;;;3.08;;
9771;SDS011;4925;52.588;13.370;2023-05-07T14:10:16;2.60;;;2.40;;
9771;SDS011;4925;52.588;13.370;2023-05-07T14:12:43;1.80;;;1.70;;
9771;SDS011;4925;52.588;13.370;2023-05-07T14:15:10;1.40;;;1.38;;
9771;SDS011;4925;52.588;13.370;2023-05-07T14:17:36;2.03;;;1.85;;
9771;SDS011;4925;52.588;13.370;2023-05-07T14:20:02;1.63;;;1.33;;
9771;SDS011;4925;52.588;13.370;2023-05-07T14:22:28;3.25;;;1.70;;
9771;SDS011;4925;52.588;13.370;2023-05-07T14:24:54;1.60;;;1.50;;
9771;SDS011;4925;52.588;13.370;2023-05-07T14:27:19;3.00;;;1.55;;
9771;SDS011;4925;52.588;13.370;2023-05-07T14:29:45;1.33;;;1.20;;
9771;SDS011;4925;52.588;13.370;2023-05-07T14:32:15;3.20;;;1.90;;
9771;SDS011;4925;52.588;13.370;2023-05-07T14:34:42;2.30;;;1.70;;
9771;SDS011;4925;52.588;13.370;2023-05-07T14:37:08;5.30;;;1.35;;
9771;SDS011;4925;52.588;13.370;2023-05-07T14:39:33;1.70;;;1.60;;
9771;SDS011;4925;52.588;13.370;2023-05-07T14:41:59;1.75;;;1.40;;
9771;SDS011;4925;52.588;13.370;2023-05-07T14:44:25;1.05;;;1.05;;
9771;SDS011;4925;52.588;13.370;2023-05-07T14:46:50;1.88;;;1.55;;
9771;SDS011;4925;52.588;13.370;2023-05-07T14:49:16;2.33;;;1.70;;
9771;SDS011;4925;52.588;13.370;2023-05-07T14:51:42;1.88;;;1.52;;
9771;SDS011;4925;52.588;13.370;2023-05-07T14:54:09;1.40;;;1.30;;
9771;SDS011;4925;52.588;13.370;2023-05-07T14:56:35;1.20;;;1.20;;
9771;SDS011;4925;52.588;13.370;2023-05-07T14:59:02;4.32;;;1.50;;
9771;SDS011;4925;52.588;13.370;2023-05-07T15:01:28;2.63;;;1.30;;
9771;SDS011;4925;52.588;13.370;2023-05-07T15:03:54;1.55;;;1.45;;
9771;SDS011;4925;52.588;13.370;2023-05-07T15:06:20;2.45;;;1.60;;
9771;SDS011;4925;52.588;13.370;2023-05-07T15:08:46;1.92;;;1.30;;
9771;SDS011;4925;52.588;13.370;2023-05-07T15:11:13;1.42;;;1.30;;
9771;SDS011;4925;52.588;13.370;2023-05-07T15:13:39;2.88;;;1.52;;